KGSP/GSP METAR and TAF weather

Enter ICAO airport designator
Station Type Date Time Source
KGSP METAR 2019/08/22 08:53 UTC NOAA

KGSP 220853Z AUTO 23006KT 10SM CLR 23/21 A3003 RMK AO2 SLP156 T02330211 56008


Station Type Date Time Source
KGSP Decoded METAR 2019/08/22 08:53 UTC NOAA

Station name not available
Aug 22, 2019 - 04:53 AM EDT / 2019.08.22 0853 UTC
Wind: from the SW (230 degrees) at 7 MPH (6 KT):0
Visibility: 10 mile(s):0
Sky conditions: clear
Temperature: 73.9 F (23.3 C)
Dew Point: 70.0 F (21.1 C)
Relative Humidity: 87%
Pressure (altimeter): 30.03 in. Hg (1016 hPa)
Pressure tendency: 0.02 inches (0.8 hPa) lower than three hours ago
ob: KGSP 220853Z AUTO 23006KT 10SM CLR 23/21 A3003 RMK AO2 SLP156 T02330211 56008
cycle: 9

Station Type Date Time Source
KGSP TAF 2019/08/22 06:42 UTC NOAA

TAF KGSP 220539Z 2206/2306 24004KT P6SM SCT250
FM221500 24006KT P6SM FEW050
FM222000 23008KT P6SM SCT060 PROB30 2220/2302 4SM TSRA BKN050CB
FM230200 24004KT P6SM BKN060

Example: see airport list